Terminal Aerodrome Forecast
Issued by NWS Jacksonville, FL

Current Version | Previous Version | Text Only | Print | Product List | Glossary On
Versions: 1 2 3 4 5 6 7 8 9 10 11 12 13 14 15 16 17 18 19 20 21 22 23
000
FTUS42 KJAX 270617 AAA
TAFGNV
TAF AMD
KGNV 270617Z 2706/2806 VRB04KT P6SM VCSH SCT005 BKN050 BKN100
     FM270800 VRB02KT 6SM BR SCT005 SCT015
     FM271200 12004KT P6SM SCT020 SCT250
     FM271500 09008KT P6SM SCT040 SCT250=

USA.gov is the U.S. government's official web portal to all federal, state and local government web resources and services.